Atlas, Illinois
Current Conditions -  °F | °C
As of 12:55 PM on Sunday 23 Nov 2014 (Local Time) from KPPQ Reporting Station
Overcast Overcast  
Wind Chill: 13°   Ceiling: 800
Heat Index: 13°   Visibility: 5mi
Dew Point: 12°   Wind: 10mph
Humidity: 93%   Direction: 140°SE
Pressure: 29.45"   Gusts: NA
Location:  39.5365°N, 91.0118°W
Report Text: KPPQ 231855Z AUTO 14009KT 5SM BKN008 OVC012 13/12 A2945 RMK AO2 P0012 T01260115 PWINO
Loading
Personal Weather Stations






























Interactive Weather Map New forecast layout! Learn more

10-Day Weather Forecast

Advertisements
Track Severe Weather on mobile